Time;durP1;ratioP1;P1;durP2;ratioP2;P2;SDS_P1;SDS_P2;PMS_P1;PMS_P2;Temp;Humidity;BMP_temperature;BMP_pressure;BME280_temperature;BME280_humidity;BME280_pressure;Samples;Min_cycle;Max_cycle;Signal;HPM_P1;HPM_P2
2023/06/17 00:00:32;;;;;;;10.67;9.77;;;;;;;20.09;100.00;22607.81;5054417;28;20195;-59
2023/06/17 00:03:00;;;;;;;10.90;9.97;;;;;;;20.32;100.00;18698.44;5054269;28;20555;-59
2023/06/17 00:05:27;;;;;;;14.00;9.77;;;;;;;20.28;100.00;18697.00;5054188;28;20215;-58
2023/06/17 00:07:54;;;;;;;10.70;9.67;;;;;;;20.26;100.00;14130.31;5054526;28;20197;-59
2023/06/17 00:10:21;;;;;;;12.10;9.67;;;;;;;20.41;100.00;15764.94;5054511;28;20185;-59
2023/06/17 00:12:48;;;;;;;10.47;9.67;;;;;;;20.52;100.00;17399.69;5054402;28;20185;-60
2023/06/17 00:15:16;;;;;;;10.80;9.87;;;;;;;20.55;100.00;16747.97;5054613;28;20194;-58
2023/06/17 00:17:44;;;;;;;10.40;9.70;;;;;;;20.58;100.00;16096.19;5054286;28;20185;-59
2023/06/17 00:20:14;;;;;;;10.57;9.43;;;;;;;20.59;100.00;17401.88;5054037;28;20196;-59
2023/06/17 00:22:44;;;;;;;10.13;9.27;;;;;;;20.67;100.00;18384.06;5053912;28;20256;-60
2023/06/17 00:25:12;;;;;;;10.13;9.43;;;;;;;20.78;100.00;19041.22;5054123;28;20266;-59
2023/06/17 00:27:40;;;;;;;12.63;10.00;;;;;;;20.74;100.00;18713.31;5053829;28;20186;-59
2023/06/17 00:30:08;;;;;;;10.43;9.03;;;;;;;20.86;100.00;20024.41;5053972;28;20272;-59
2023/06/17 00:32:36;;;;;;;10.90;9.83;;;;;;;20.75;100.00;22962.25;5053743;28;20273;-58
2023/06/17 00:35:05;;;;;;;10.37;9.50;;;;;;;20.85;100.00;23947.94;5053790;28;20185;-58
2023/06/17 00:37:33;;;;;;;10.63;9.57;;;;;;;20.65;100.00;24266.41;5053616;28;20259;-59
2023/06/17 00:40:00;;;;;;;10.05;9.35;;;;;;;20.98;100.00;26245.53;5053603;28;20185;-58
2023/06/17 00:42:27;;;;;;;10.00;9.40;;;;;;;20.86;100.00;27877.28;5053936;28;20185;-59
2023/06/17 00:44:54;;;;;;;10.07;9.13;;;;;;;20.94;100.00;30503.38;5053357;28;20216;-59
2023/06/17 00:47:21;;;;;;;19.73;9.80;;;;;;;21.03;100.00;32147.78;5052666;28;20185;-57
2023/06/17 00:49:49;;;;;;;13.50;10.30;;;;;;;21.01;100.00;33131.28;5053704;28;20660;-59
2023/06/17 00:52:17;;;;;;;9.73;8.80;;;;;;;20.85;100.00;31810.00;5053857;28;20612;-59
2023/06/17 00:54:45;;;;;;;10.97;9.57;;;;;;;20.92;100.00;32798.16;5053425;28;20194;-59
2023/06/17 00:57:14;;;;;;;12.67;9.60;;;;;;;20.86;100.00;31154.44;5053254;28;20213;-59
2023/06/17 00:59:43;;;;;;;24.70;10.75;;;;;;;20.83;100.00;24928.97;5053293;28;20216;-58
2023/06/17 01:02:13;;;;;;;26.30;11.60;;;;;;;20.80;100.00;14797.84;5053611;28;20200;-58
2023/06/17 01:04:42;;;;;;;20.63;11.37;;;;;;;20.59;100.00;4371.31;5053126;28;20209;-58
2023/06/17 01:07:24;;;;;;;24.80;11.80;;;;;;;20.63;100.00;-2124.56;5053399;28;20228;-59
2023/06/17 01:10:02;;;;;;;15.53;11.70;;;;;;;20.57;100.00;-3097.94;5053063;28;20185;-59
2023/06/17 01:12:30;;;;;;;26.27;13.17;;;;;;;20.36;100.00;-7634.66;5053445;28;20571;-59
2023/06/17 01:15:01;;;;;;;28.03;12.77;;;;;;;20.31;100.00;-16687.75;5052910;28;20201;-59
2023/06/17 01:17:29;;;;;;;23.43;14.40;;;;;;;20.16;100.00;-18300.22;5053245;28;20185;-59
2023/06/17 01:19:57;;;;;;;22.57;12.70;;;;;;;19.97;100.00;-18295.78;5052880;28;20189;-59
2023/06/17 01:22:26;;;;;;;25.33;12.80;;;;;;;19.90;100.00;-18294.13;5052739;28;20185;-58
2023/06/17 01:25:01;;;;;;;19.23;12.97;;;;;;;19.73;100.00;-18289.94;5052718;28;20292;-59
2023/06/17 01:27:28;;;;;;;16.60;12.47;;;;;;;19.86;100.00;-18293.16;5053039;28;20200;-58
2023/06/17 01:29:55;;;;;;;16.17;11.97;;;;;;;19.83;100.00;-18292.47;5052948;28;20272;-59
2023/06/17 01:32:22;;;;;;;13.48;12.60;;;;;;;19.80;100.00;-18291.75;5052965;28;20196;-57
2023/06/17 01:34:56;;;;;;;13.43;12.23;;;;;;;19.82;100.00;-18292.22;5052633;28;20197;-59
2023/06/17 01:37:36;;;;;;;22.17;12.87;;;;;;;19.86;100.00;-18293.06;5052769;28;20579;-59
2023/06/17 01:40:08;;;;;;;19.73;13.87;;;;;;;19.89;100.00;-18293.88;5052847;28;20650;-59
2023/06/17 01:42:38;;;;;;;23.10;13.90;;;;;;;19.83;100.00;-18292.34;5052738;28;20533;-58
2023/06/17 01:45:07;;;;;;;16.03;14.30;;;;;;;19.74;100.00;-18290.31;5052278;28;20209;-58
2023/06/17 01:47:35;;;;;;;26.40;13.93;;;;;;;19.75;100.00;-18290.44;5052664;28;20226;-59
2023/06/17 01:50:04;;;;;;;16.50;14.60;;;;;;;19.75;100.00;-18290.44;5052317;28;20186;-59
2023/06/17 01:52:31;;;;;;;16.77;15.03;;;;;;;19.85;100.00;-18292.81;5052504;28;20657;-59
2023/06/17 01:54:59;;;;;;;16.33;14.47;;;;;;;19.99;100.00;-18296.16;5052535;28;20182;-59
2023/06/17 01:57:27;;;;;;;18.57;14.73;;;;;;;20.05;100.00;-18297.59;5052133;28;20272;-59
2023/06/17 01:59:55;;;;;;;36.33;23.13;;;;;;;19.98;100.00;-18296.03;5052413;28;20196;-59
2023/06/17 02:02:22;;;;;;;95.30;47.67;;;;;;;20.15;100.00;-18299.97;5052141;28;20193;-59
2023/06/17 02:04:50;;;;;;;31.40;21.53;;;;;;;20.10;100.00;-18298.78;5051904;28;20205;-59
2023/06/17 02:07:18;;;;;;;53.10;30.27;;;;;;;20.23;100.00;-18301.75;5052368;28;20591;-59
2023/06/17 02:09:45;;;;;;;44.97;29.20;;;;;;;20.30;100.00;-18301.66;5052230;28;20252;-59
2023/06/17 02:12:12;;;;;;;41.87;25.73;;;;;;;20.21;100.00;-18299.50;5051879;28;20181;-58
2023/06/17 02:14:41;;;;;;;33.67;22.10;;;;;;;20.11;100.00;-18297.13;5052293;28;20197;-58
2023/06/17 02:17:11;;;;;;;30.77;20.50;;;;;;;20.22;100.00;-18299.63;5052118;28;20199;-59
2023/06/17 02:19:39;;;;;;;20.30;17.37;;;;;;;20.26;100.00;-17977.88;5051845;28;20189;-59
2023/06/17 02:22:07;;;;;;;18.83;16.37;;;;;;;20.28;100.00;-18301.06;5051711;28;20221;-59
2023/06/17 02:24:34;;;;;;;20.40;14.85;;;;;;;20.27;100.00;-17978.22;5051518;28;20240;-59
2023/06/17 02:27:02;;;;;;;15.97;14.47;;;;;;;20.35;100.00;-17657.16;5051614;28;20189;-59
2023/06/17 02:29:30;;;;;;;18.00;14.40;;;;;;;20.24;100.00;-17654.66;5051692;28;20191;-59
2023/06/17 02:31:58;;;;;;;19.23;14.57;;;;;;;20.19;100.00;-17653.63;5051645;28;20193;-59
2023/06/17 02:34:27;;;;;;;14.33;13.20;;;;;;;20.25;100.00;-17977.75;5051909;28;20272;-59
2023/06/17 02:36:56;;;;;;;15.40;13.83;;;;;;;20.26;100.00;-17977.97;5051534;28;20185;-58
2023/06/17 02:39:23;;;;;;;19.43;14.00;;;;;;;20.17;100.00;-17975.88;5051421;28;20284;-58
2023/06/17 02:41:50;;;;;;;15.37;13.90;;;;;;;20.27;100.00;-18300.94;5054550;28;20188;-59
2023/06/17 02:44:17;;;;;;;17.27;15.40;;;;;;;20.21;100.00;-18299.50;5071462;28;20188;-58
2023/06/17 02:46:47;;;;;;;21.47;15.43;;;;;;;20.25;100.00;-18300.34;5071682;28;20292;-58
2023/06/17 02:49:15;;;;;;;18.20;16.07;;;;;;;20.25;100.00;-18300.47;5071738;28;20191;-59
2023/06/17 02:51:42;;;;;;;17.23;15.70;;;;;;;20.14;100.00;-18297.72;5071484;28;20188;-58
2023/06/17 02:54:10;;;;;;;22.20;15.30;;;;;;;20.14;100.00;-18297.84;5071800;28;20196;-58
2023/06/17 02:56:37;;;;;;;21.30;16.07;;;;;;;20.14;100.00;-18297.72;5071659;28;20220;-59
2023/06/17 02:59:04;;;;;;;17.30;15.53;;;;;;;20.23;100.00;-17977.28;5072010;28;20193;-58
2023/06/17 03:01:31;;;;;;;22.47;16.97;;;;;;;20.31;100.00;-17979.03;5071767;28;20195;-58
2023/06/17 03:04:03;;;;;;;60.97;34.90;;;;;;;20.31;100.00;-17979.03;5071654;28;20634;-60
2023/06/17 03:06:33;;;;;;;38.60;26.10;;;;;;;20.38;100.00;-18303.56;5071637;28;20690;-59
2023/06/17 03:09:03;;;;;;;27.57;20.00;;;;;;;20.47;100.00;-17982.88;5071785;28;20555;-58
2023/06/17 03:11:30;;;;;;;28.20;17.70;;;;;;;20.45;100.00;-17982.41;5075498;28;20184;-58
2023/06/17 03:13:56;;;;;;;59.50;25.83;;;;;;;20.45;100.00;-18305.22;5075603;28;20719;-58
2023/06/17 03:16:24;;;;;;;27.33;20.73;;;;;;;20.48;100.00;-18305.94;5075540;28;20189;-59
2023/06/17 03:18:51;;;;;;;21.57;17.17;;;;;;;20.59;100.00;-18308.44;5075170;28;20204;-58
2023/06/17 03:21:18;;;;;;;20.43;17.87;;;;;;;20.65;100.00;-18311.66;5075132;28;20281;-59
2023/06/17 03:23:48;;;;;;;18.57;15.40;;;;;;;20.74;100.00;-18313.81;5074785;28;20227;-58
2023/06/17 03:26:15;;;;;;;15.43;13.97;;;;;;;20.77;100.00;-18314.50;5074976;28;20219;-58
2023/06/17 03:28:43;;;;;;;20.60;14.43;;;;;;;20.85;100.00;-18316.41;5075080;28;20189;-58
2023/06/17 03:31:10;;;;;;;18.42;15.23;;;;;;;20.79;100.00;-18315.09;5075250;28;20195;-58
2023/06/17 03:33:37;;;;;;;18.83;14.50;;;;;;;20.81;100.00;-18315.59;5074882;28;20189;-59
2023/06/17 03:36:04;;;;;;;13.90;12.50;;;;;;;20.86;100.00;-18316.66;5074816;28;20184;-58
2023/06/17 03:38:31;;;;;;;13.63;11.97;;;;;;;20.94;100.00;-18316.78;5074818;28;20181;-58
2023/06/17 03:41:00;;;;;;;14.50;12.97;;;;;;;21.05;100.00;-17996.16;5075064;28;20627;-58
2023/06/17 03:43:26;;;;;;;14.70;12.27;;;;;;;21.09;100.00;-14763.78;5075019;28;20686;-59
2023/06/17 03:45:53;;;;;;;14.30;13.00;;;;;;;21.02;100.00;-14115.56;5074899;28;20555;-59
2023/06/17 03:48:20;;;;;;;19.83;13.40;;;;;;;21.17;100.00;-14441.69;5074878;28;20189;-59
2023/06/17 03:50:48;;;;;;;14.23;12.93;;;;;;;21.23;100.00;-14119.16;5074510;28;20185;-61
2023/06/17 03:53:15;;;;;;;12.67;11.43;;;;;;;21.11;100.00;-13469.94;5074783;28;20639;-58
2023/06/17 03:55:41;;;;;;;13.57;12.30;;;;;;;21.03;100.00;-10231.31;5074449;28;20191;-58
2023/06/17 03:58:14;;;;;;;14.37;13.10;;;;;;;20.71;100.00;-9904.13;5074408;28;20192;-59
2023/06/17 04:00:41;;;;;;;16.03;14.63;;;;;;;20.93;100.00;-11201.69;5074461;28;20192;-58
2023/06/17 04:03:10;;;;;;;20.60;16.33;;;;;;;20.92;100.00;-12172.69;5074684;28;20532;-59
2023/06/17 04:05:37;;;;;;;24.30;15.80;;;;;;;20.99;100.00;-12173.59;5074272;28;20216;-59
2023/06/17 04:08:06;;;;;;;18.02;15.10;;;;;;;20.94;100.00;-11201.81;5074579;28;20188;-59
2023/06/17 04:10:33;;;;;;;18.33;16.47;;;;;;;21.15;100.00;-11851.97;5074538;28;20184;-59
2023/06/17 04:13:00;;;;;;;19.02;16.00;;;;;;;21.26;100.00;-11205.72;5074174;28;20590;-58
2023/06/17 04:15:29;;;;;;;17.70;15.80;;;;;;;21.44;100.00;-6992.97;5074133;28;20184;-59
2023/06/17 04:17:58;;;;;;;20.03;14.90;;;;;;;21.45;100.00;-3747.00;5074096;28;20230;-58
2023/06/17 04:20:26;;;;;;;17.40;15.57;;;;;;;21.69;100.00;-3097.25;5073723;28;20207;-59
2023/06/17 04:22:53;;;;;;;15.90;14.10;;;;;;;21.85;100.00;-495.84;5073197;28;20331;-58
2023/06/17 04:25:20;;;;;;;17.97;13.83;;;;;;;21.97;100.00;2759.88;5074199;28;20185;-59
2023/06/17 04:27:53;;;;;;;20.60;14.00;;;;;;;22.11;100.00;3738.75;5074233;28;20195;-58
2023/06/17 04:30:20;;;;;;;15.63;13.27;;;;;;;22.34;100.00;5697.75;5073885;28;20193;-59
2023/06/17 04:32:50;;;;;;;13.77;12.73;;;;;;;22.49;100.00;11577.41;5073841;28;20271;-59
2023/06/17 04:35:18;;;;;;;14.55;12.00;;;;;;;22.71;100.00;16817.88;5074045;28;20618;-59
2023/06/17 04:37:53;;;;;;;11.77;10.82;;;;;;;22.86;100.00;27320.44;5073769;28;20200;-59
2023/06/17 04:40:20;;;;;;;14.30;10.90;;;;;;;23.02;100.00;38191.28;5073689;28;20275;-63
2023/06/17 04:42:47;;;;;;;14.45;10.63;;;;;;;23.21;100.00;57057.16;5073635;28;20233;-59
2023/06/17 04:45:15;;;;;;;24.05;11.55;;;;;;;23.26;100.00;76021.03;5073911;28;20216;-58
2023/06/17 04:47:42;;;;;;;13.52;12.23;;;;;;;23.32;100.00;67366.69;5073734;28;20204;-59
2023/06/17 04:50:12;;;;;;;22.40;12.27;;;;;;;23.33;100.00;56736.75;5073881;28;20195;-58
2023/06/17 04:52:42;;;;;;;10.73;9.88;;;;;;;23.52;100.00;65060.06;5073735;28;20223;-59
2023/06/17 04:55:13;;;;;;;21.55;10.32;;;;;;;23.69;100.00;75408.50;5073446;28;20197;-59
2023/06/17 04:57:41;;;;;;;10.52;9.43;;;;;;;23.72;100.00;69743.63;5073304;28;20234;-58
2023/06/17 05:00:10;;;;;;;11.80;10.02;;;;;;;23.77;100.00;98524.53;5073238;28;20185;-58
2023/06/17 05:02:37;;;;;;;12.88;9.73;;;;;;;24.10;100.00;108680.34;5073210;28;20189;-59
2023/06/17 05:05:04;;;;;;;17.00;8.82;;;;;;;24.26;100.00;130018.59;5073538;28;20195;-59
2023/06/17 05:07:33;;;;;;;8.52;5.10;;;;;;;24.23;100.00;152132.16;5073200;28;20209;-59
2023/06/17 05:09:59;;;;;;;5.13;4.57;;;;;;;24.36;100.00;152164.06;5073012;28;20277;-59
2023/06/17 05:12:26;;;;;;;6.82;4.82;;;;;;;24.53;100.00;152207.47;5073313;28;20181;-60
2023/06/17 05:14:53;;;;;;;5.15;4.75;;;;;;;24.64;100.00;152235.59;5073616;28;20270;-60
2023/06/17 05:17:20;;;;;;;5.10;4.10;;;;;;;24.74;100.00;152261.13;5073221;28;20584;-59
2023/06/17 05:19:48;;;;;;;5.40;4.97;;;;;;;24.93;100.00;152309.72;5073160;28;20516;-59
2023/06/17 05:22:15;;;;;;;4.93;4.43;;;;;;;24.94;100.00;152312.28;5072907;28;20231;-59
2023/06/17 05:24:43;;;;;;;4.70;4.50;;;;;;;25.05;100.00;152337.81;5072856;28;20191;-59
2023/06/17 05:27:10;;;;;;;6.35;5.10;;;;;;;25.09;100.00;152348.03;5072958;28;20571;-60
2023/06/17 05:29:37;;;;;;;4.57;4.20;;;;;;;25.17;100.00;152369.75;5072949;28;20657;-58
2023/06/17 05:32:04;;;;;;;6.13;4.22;;;;;;;25.16;100.00;152367.22;5072621;28;20622;-59
2023/06/17 05:34:31;;;;;;;5.13;3.90;;;;;;;25.21;100.00;152379.97;5072500;28;20189;-58
2023/06/17 05:36:58;;;;;;;4.80;4.32;;;;;;;25.40;100.00;152428.56;5071536;28;20696;-59
2023/06/17 05:39:25;;;;;;;4.40;4.20;;;;;;;25.50;100.00;152451.56;5072467;28;20195;-59
2023/06/17 05:41:53;;;;;;;4.97;4.35;;;;;;;25.56;100.00;152466.91;5072409;28;20193;-59
2023/06/17 05:44:20;;;;;;;4.35;4.03;;;;;;;25.48;100.00;152449.00;5072315;28;20189;-59
2023/06/17 05:46:50;;;;;;;4.22;3.97;;;;;;;25.36;100.00;152418.34;5072259;28;20200;-59
2023/06/17 05:49:17;;;;;;;4.22;4.03;;;;;;;25.12;100.00;152356.97;5072264;28;20240;-59
2023/06/17 05:51:44;;;;;;;4.18;3.80;;;;;;;25.64;100.00;152488.63;5072492;28;20627;-59
2023/06/17 05:54:11;;;;;;;3.63;3.42;;;;;;;26.03;100.00;152585.78;5072436;28;20188;-59
2023/06/17 05:56:38;;;;;;;4.03;3.75;;;;;;;26.28;100.00;152651.03;5072432;28;20192;-59
2023/06/17 05:59:06;;;;;;;9.68;3.72;;;;;;;26.09;100.00;152601.13;5072063;28;20201;-59
2023/06/17 06:01:33;;;;;;;3.60;3.45;;;;;;;25.84;100.00;152538.50;5072397;28;20636;-58
2023/06/17 06:04:00;;;;;;;3.55;3.42;;;;;;;25.67;100.00;152496.34;5072307;28;20196;-60
2023/06/17 06:06:27;;;;;;;3.67;3.38;;;;;;;25.66;100.00;152492.50;5072195;28;20236;-59
2023/06/17 06:08:54;;;;;;;4.40;3.97;;;;;;;25.71;100.00;152505.28;5071983;28;20243;-59
2023/06/17 06:11:21;;;;;;;4.63;4.25;;;;;;;25.81;100.00;152530.81;5072230;28;20189;-59
2023/06/17 06:13:48;;;;;;;4.07;3.78;;;;;;;26.51;100.00;152707.28;5072036;28;20284;-59
2023/06/17 06:16:16;;;;;;;4.20;4.00;;;;;;;26.77;100.00;152775.09;5071781;28;20187;-58
2023/06/17 06:18:43;;;;;;;4.05;3.72;;;;;;;26.96;100.00;152822.44;5071773;28;20199;-60
2023/06/17 06:21:10;;;;;;;6.22;4.40;;;;;;;26.98;100.00;152827.56;5072037;28;20238;-59
2023/06/17 06:23:37;;;;;;;4.57;4.10;;;;;;;27.32;100.00;152913.28;5071467;28;20236;-59
2023/06/17 06:26:04;;;;;;;10.02;6.20;;;;;;;27.58;100.00;152979.81;5071566;28;20279;-59
2023/06/17 06:28:31;;;;;;;5.88;5.47;;;;;;;27.51;100.00;152961.91;5071738;28;20200;-60
2023/06/17 06:30:58;;;;;;;6.30;5.75;;;;;;;27.73;100.00;153015.66;5071644;28;20189;-59
2023/06/17 06:33:29;;;;;;;5.60;5.20;;;;;;;27.87;100.00;153051.50;5071629;28;20192;-59
2023/06/17 06:35:56;;;;;;;7.03;5.35;;;;;;;28.07;100.00;153102.69;5071507;28;20184;-60
2023/06/17 06:38:24;;;;;;;6.25;5.47;;;;;;;28.68;100.00;153257.66;5071915;28;20250;-60
2023/06/17 06:40:50;;;;;;;23.27;5.93;;;;;;;29.12;100.00;153369.09;5071571;28;20280;-59
2023/06/17 06:43:17;;;;;;;8.95;5.55;;;;;;;29.26;100.00;153403.69;5071390;28;20220;-60
2023/06/17 06:45:44;;;;;;;10.07;6.05;;;;;;;28.96;100.00;153328.13;5070060;28;20595;-59
2023/06/17 06:48:13;;;;;;;6.53;5.90;;;;;;;29.04;100.00;153348.59;5071932;28;20201;-59
2023/06/17 06:50:41;;;;;;;20.88;6.05;;;;;;;29.00;100.00;153338.38;5071774;28;20212;-59
2023/06/17 06:53:08;;;;;;;9.80;5.72;;;;;;;29.16;100.00;153378.03;5071692;28;20184;-59
2023/06/17 06:55:35;;;;;;;14.88;5.68;;;;;;;29.47;100.00;153458.81;5071731;28;20193;-60
2023/06/17 06:58:04;;;;;;;4.88;4.50;;;;;;;29.53;100.00;153471.63;5071617;28;20188;-59
2023/06/17 07:00:31;;;;;;;6.97;5.13;;;;;;;28.87;100.00;153306.34;5071654;28;20554;-61
2023/06/17 07:02:58;;;;;;;7.90;4.82;;;;;;;29.21;100.00;153390.88;5071341;28;20191;-60
2023/06/17 07:05:25;;;;;;;5.05;4.53;;;;;;;29.19;100.00;153385.78;5071576;28;20690;-60
2023/06/17 07:07:53;;;;;;;4.60;4.30;;;;;;;28.71;100.00;153265.38;5071551;28;20617;-60
2023/06/17 07:10:20;;;;;;;13.65;4.82;;;;;;;28.49;100.00;153208.97;5071304;28;20191;-60
2023/06/17 07:12:47;;;;;;;19.95;5.25;;;;;;;28.63;100.00;153244.84;5071173;28;20196;-60
2023/06/17 07:15:14;;;;;;;5.65;3.97;;;;;;;28.71;100.00;153264.09;5071717;28;20196;-60
2023/06/17 07:17:41;;;;;;;7.18;3.88;;;;;;;28.51;100.00;153215.41;5070292;28;20181;-59
2023/06/17 07:20:08;;;;;;;4.95;4.43;;;;;;;28.36;100.00;153176.97;5071444;28;20188;-59
2023/06/17 07:22:36;;;;;;;5.15;4.30;;;;;;;28.39;100.00;153183.41;5071044;28;20231;-60
2023/06/17 07:25:04;;;;;;;22.05;5.97;;;;;;;28.53;100.00;153220.50;5070243;28;20652;-60
2023/06/17 07:27:31;;;;;;;5.28;3.90;;;;;;;28.64;100.00;153247.41;5071319;28;20770;-60
2023/06/17 07:29:58;;;;;;;4.50;4.20;;;;;;;28.54;100.00;153221.78;5071032;28;20196;-60
2023/06/17 07:32:25;;;;;;;4.50;4.10;;;;;;;29.00;100.00;153338.38;5071384;28;20197;-59
2023/06/17 07:34:53;;;;;;;4.10;3.80;;;;;;;28.73;100.00;153270.47;5071238;28;20188;-58
2023/06/17 07:37:20;;;;;;;8.52;3.75;;;;;;;28.39;100.00;153183.41;5070981;28;20181;-59
2023/06/17 07:39:47;;;;;;;4.32;3.33;;;;;;;27.96;100.00;153074.56;5071034;28;20191;-60
2023/06/17 07:42:16;;;;;;;4.80;3.80;;;;;;;28.05;100.00;153098.84;5070993;28;20238;-59
2023/06/17 07:44:45;;;;;;;3.63;3.35;;;;;;;28.18;100.00;153130.88;5071263;28;20181;-59
2023/06/17 07:47:12;;;;;;;3.85;3.03;;;;;;;27.61;100.00;152987.53;5070732;28;20240;-60
2023/06/17 07:49:38;;;;;;;6.88;3.58;;;;;;;27.68;100.00;153005.44;5071157;28;20212;-60
2023/06/17 07:52:06;;;;;;;11.57;3.97;;;;;;;27.87;100.00;153051.50;5070712;28;20185;-59
2023/06/17 07:54:35;;;;;;;5.22;3.50;;;;;;;28.24;100.00;153146.25;5070845;28;20259;-59
2023/06/17 07:57:02;;;;;;;6.32;3.25;;;;;;;28.58;100.00;153233.31;5074383;28;20555;-59
2023/06/17 07:59:31;;;;;;;3.05;2.85;;;;;;;28.42;100.00;153191.06;5074343;28;20184;-59
2023/06/17 08:01:58;;;;;;;5.65;3.58;;;;;;;28.35;100.00;153174.41;5073443;28;20609;-60
2023/06/17 08:04:25;;;;;;;3.38;3.17;;;;;;;28.32;100.00;153165.47;5074377;28;20176;-60
2023/06/17 08:06:52;;;;;;;3.60;3.30;;;;;;;28.03;100.00;153093.75;5074240;28;20201;-60
2023/06/17 08:09:19;;;;;;;8.55;3.08;;;;;;;27.98;100.00;153079.66;5074571;28;20188;-60
2023/06/17 08:11:47;;;;;;;4.28;3.25;;;;;;;28.26;100.00;153151.41;5074630;28;20185;-60
2023/06/17 08:14:15;;;;;;;5.57;3.60;;;;;;;28.74;100.00;153271.75;5074507;28;20231;-59
2023/06/17 08:16:43;;;;;;;4.13;3.47;;;;;;;28.98;100.00;153334.50;5074067;28;20188;-59
2023/06/17 08:19:10;;;;;;;6.38;3.60;;;;;;;28.88;100.00;153308.91;5074385;28;20249;-59
2023/06/17 08:21:37;;;;;;;14.10;3.10;;;;;;;28.83;100.00;153294.81;5073938;28;20245;-60
2023/06/17 08:24:17;;;;;;;3.80;3.53;;;;;;;28.74;100.00;153271.75;5073845;28;20235;-60
2023/06/17 08:26:45;;;;;;;4.55;4.18;;;;;;;28.87;100.00;153306.34;5073818;28;20188;-60
2023/06/17 08:29:12;;;;;;;4.90;3.90;;;;;;;29.16;100.00;153378.03;5073885;28;20650;-59
2023/06/17 08:31:39;;;;;;;4.30;4.00;;;;;;;28.71;100.00;153264.09;5073851;28;20199;-60
2023/06/17 08:34:08;;;;;;;4.50;4.10;;;;;;;28.02;100.00;153089.88;5074081;28;20508;-59
2023/06/17 08:36:37;;;;;;;6.13;4.20;;;;;;;28.34;100.00;153171.88;5073808;28;20188;-60
2023/06/17 08:39:04;;;;;;;4.10;3.80;;;;;;;28.54;100.00;153223.09;5073705;28;20185;-60
2023/06/17 08:41:31;;;;;;;6.97;3.83;;;;;;;28.48;100.00;153206.41;5074004;28;20550;-59
2023/06/17 08:44:02;;;;;;;6.05;4.18;;;;;;;28.33;100.00;153169.31;5073964;28;20189;-59
2023/06/17 08:46:29;;;;;;;4.22;3.92;;;;;;;28.30;100.00;153160.34;5073865;28;20188;-59
2023/06/17 08:48:58;;;;;;;4.15;3.95;;;;;;;28.64;100.00;153246.13;5073781;28;20682;-60
2023/06/17 08:51:27;;;;;;;4.63;4.30;;;;;;;28.50;100.00;153212.84;5072310;28;20192;-59
2023/06/17 08:53:55;;;;;;;5.38;4.00;;;;;;;28.87;100.00;153305.06;5073443;28;20188;-60
2023/06/17 08:56:22;;;;;;;4.18;3.75;;;;;;;28.86;100.00;153302.50;5073358;28;20195;-59
2023/06/17 08:58:49;;;;;;;5.38;3.95;;;;;;;28.01;100.00;153087.31;5073619;28;20192;-59
2023/06/17 09:01:18;;;;;;;4.07;3.88;;;;;;;27.65;100.00;152997.75;5073560;28;20185;-60
2023/06/17 09:03:45;;;;;;;4.10;3.80;;;;;;;27.89;100.00;153056.59;5073246;28;20219;-59
2023/06/17 09:06:21;;;;;;;4.32;4.00;;;;;;;27.99;100.00;153082.22;5073384;28;20287;-60
2023/06/17 09:08:50;;;;;;;7.72;3.95;;;;;;;28.05;100.00;153097.59;5072408;28;20219;-60
2023/06/17 09:11:17;;;;;;;7.20;4.00;;;;;;;27.57;100.00;152976.00;5073057;28;20207;-59
2023/06/17 09:13:50;;;;;;;7.40;4.10;;;;;;;27.27;100.00;152901.75;5073190;28;20197;-59
2023/06/17 09:16:18;;;;;;;4.55;4.13;;;;;;;27.38;100.00;152928.59;5073178;28;20188;-60
2023/06/17 09:18:45;;;;;;;4.72;4.25;;;;;;;27.33;100.00;152915.78;5072845;28;20238;-59
2023/06/17 09:21:16;;;;;;;4.20;3.83;;;;;;;27.51;100.00;152960.63;5072798;28;20189;-60
2023/06/17 09:23:43;;;;;;;4.20;3.85;;;;;;;27.55;100.00;152970.88;5072654;28;20278;-59
2023/06/17 09:26:11;;;;;;;4.70;4.15;;;;;;;27.75;100.00;153020.81;5072666;28;20267;-60
2023/06/17 09:28:38;;;;;;;5.03;4.55;;;;;;;27.94;100.00;153069.41;5072569;28;20209;-60
2023/06/17 09:31:05;;;;;;;3.95;3.63;;;;;;;28.21;100.00;153138.59;5072628;28;20195;-59
2023/06/17 09:33:32;;;;;;;4.03;3.63;;;;;;;28.58;100.00;153232.03;5072949;28;20185;-61
2023/06/17 09:36:00;;;;;;;4.38;4.07;;;;;;;28.95;100.00;153326.81;5072822;28;20188;-59
2023/06/17 09:38:28;;;;;;;6.20;4.68;;;;;;;29.20;100.00;153388.28;5072497;28;20181;-60
2023/06/17 09:40:55;;;;;;;4.63;4.43;;;;;;;29.45;100.00;153453.69;5072719;28;20623;-60
2023/06/17 09:43:26;;;;;;;4.40;4.10;;;;;;;29.36;100.00;153430.66;5072362;28;20192;-59
2023/06/17 09:45:59;;;;;;;4.20;4.00;;;;;;;29.17;100.00;153380.63;5072392;28;20189;-60
2023/06/17 09:48:30;;;;;;;5.05;4.55;;;;;;;29.11;100.00;153366.50;5072337;28;20204;-59
2023/06/17 09:50:58;;;;;;;7.50;4.65;;;;;;;29.24;100.00;153399.81;5072348;28;20195;-60
2023/06/17 09:53:29;;;;;;;5.65;4.80;;;;;;;29.50;100.00;153466.50;5072456;28;20189;-60
2023/06/17 09:55:57;;;;;;;5.75;4.93;;;;;;;29.65;100.00;153502.38;5072186;28;20189;-60
2023/06/17 09:58:28;;;;;;;11.05;4.80;;;;;;;29.64;100.00;153501.09;5072804;28;20200;-60
2023/06/17 10:00:57;;;;;;;5.13;4.57;;;;;;;28.88;100.00;153307.63;5072453;28;20567;-60
2023/06/17 10:03:25;;;;;;;5.82;4.53;;;;;;;28.66;100.00;153251.22;5072346;28;20575;-59
2023/06/17 10:05:56;;;;;;;5.22;4.78;;;;;;;28.29;100.00;153159.06;5071933;28;20188;-59
2023/06/17 10:08:23;;;;;;;4.78;4.35;;;;;;;28.09;100.00;153107.84;5071891;28;20333;-60
2023/06/17 10:10:52;;;;;;;6.28;4.60;;;;;;;27.52;100.00;152964.50;5071858;28;20192;-60
2023/06/17 10:13:22;;;;;;;4.55;4.05;;;;;;;27.43;100.00;152941.41;5071910;28;20196;-60
2023/06/17 10:15:53;;;;;;;4.75;4.45;;;;;;;27.73;100.00;153015.66;5071796;28;20189;-60
2023/06/17 10:18:22;;;;;;;4.25;4.13;;;;;;;27.27;100.00;152900.47;5071311;28;20188;-60
2023/06/17 10:20:51;;;;;;;7.35;4.30;;;;;;;27.49;100.00;152956.81;5070155;28;20223;-59
2023/06/17 10:23:21;;;;;;;6.22;4.43;;;;;;;27.71;100.00;153013.09;5071720;28;20258;-60
2023/06/17 10:25:48;;;;;;;5.10;4.10;;;;;;;27.54;100.00;152969.56;5071658;28;20189;-60
2023/06/17 10:28:16;;;;;;;5.10;4.70;;;;;;;27.42;100.00;152938.84;5071943;28;20788;-59
2023/06/17 10:30:45;;;;;;;4.72;4.35;;;;;;;27.38;100.00;152928.59;5071693;28;20185;-59
2023/06/17 10:33:14;;;;;;;6.78;4.45;;;;;;;27.05;100.00;152844.19;5071916;28;20254;-59
2023/06/17 10:35:42;;;;;;;4.45;4.00;;;;;;;26.74;100.00;152767.38;5071881;28;20647;-59
2023/06/17 10:38:10;;;;;;;6.95;4.50;;;;;;;26.66;100.00;152746.94;5071739;28;20185;-59
2023/06/17 10:40:50;;;;;;;6.90;4.90;;;;;;;26.52;100.00;152709.88;5071547;28;20188;-59
2023/06/17 10:43:19;;;;;;;6.55;4.85;;;;;;;26.52;100.00;152709.88;5071507;28;20196;-58
2023/06/17 10:45:50;;;;;;;5.10;4.47;;;;;;;26.31;100.00;152657.41;5071813;28;20563;-59
2023/06/17 10:48:22;;;;;;;5.25;4.18;;;;;;;26.43;100.00;152688.13;5071777;28;20222;-58
2023/06/17 10:50:53;;;;;;;4.50;4.10;;;;;;;26.38;100.00;152675.34;5071676;28;20242;-60
2023/06/17 10:53:27;;;;;;;8.57;4.07;;;;;;;26.34;100.00;152665.09;5071677;28;20193;-59
2023/06/17 10:55:54;;;;;;;5.75;4.40;;;;;;;26.45;100.00;152693.22;5071713;28;20651;-60
2023/06/17 10:58:21;;;;;;;12.48;4.03;;;;;;;26.30;100.00;152656.16;5071379;28;20180;-59
2023/06/17 11:00:58;;;;;;;7.22;4.47;;;;;;;26.45;100.00;152691.94;5071610;28;20181;-59
2023/06/17 11:03:27;;;;;;;4.43;4.05;;;;;;;26.31;100.00;152657.41;5071308;28;20180;-60
2023/06/17 11:05:57;;;;;;;7.10;4.15;;;;;;;26.23;100.00;152636.94;5071218;28;20192;-60
2023/06/17 11:08:24;;;;;;;7.05;4.22;;;;;;;25.82;100.00;152534.66;5072097;28;20211;-59
2023/06/17 11:10:51;;;;;;;6.93;4.30;;;;;;;26.13;100.00;152611.38;5071499;28;20277;-59
2023/06/17 11:13:22;;;;;;;4.60;4.32;;;;;;;25.88;100.00;152550.03;5071215;28;20196;-59
2023/06/17 11:15:56;;;;;;;6.43;4.45;;;;;;;26.23;100.00;152636.94;5071240;28;20196;-59